sensor_id;sensor_type;location;lat;lon;timestamp;temperature;humidity
14487;DHT22;7329;50.866;4.366;2022-12-13T00:01:20;16.60;82.00
14487;DHT22;7329;50.866;4.366;2022-12-13T00:03:22;16.60;82.30
14487;DHT22;7329;50.866;4.366;2022-12-13T00:05:24;16.60;81.60
14487;DHT22;7329;50.866;4.366;2022-12-13T00:07:27;16.60;82.20
14487;DHT22;7329;50.866;4.366;2022-12-13T00:09:29;16.60;81.70
14487;DHT22;7329;50.866;4.366;2022-12-13T00:11:32;16.60;81.40
14487;DHT22;7329;50.866;4.366;2022-12-13T00:13:35;16.60;81.80
14487;DHT22;7329;50.866;4.366;2022-12-13T00:15:38;16.60;81.50
14487;DHT22;7329;50.866;4.366;2022-12-13T00:17:40;16.60;81.40
14487;DHT22;7329;50.866;4.366;2022-12-13T00:19:43;16.50;81.50
14487;DHT22;7329;50.866;4.366;2022-12-13T00:21:45;16.50;81.40
14487;DHT22;7329;50.866;4.366;2022-12-13T00:23:48;16.60;81.40
14487;DHT22;7329;50.866;4.366;2022-12-13T00:25:50;16.60;81.60
14487;DHT22;7329;50.866;4.366;2022-12-13T00:27:53;16.60;81.20
14487;DHT22;7329;50.866;4.366;2022-12-13T00:29:56;16.60;81.30
14487;DHT22;7329;50.866;4.366;2022-12-13T00:32:01;16.50;81.30
14487;DHT22;7329;50.866;4.366;2022-12-13T00:34:03;16.50;80.80
14487;DHT22;7329;50.866;4.366;2022-12-13T00:36:07;16.50;80.80
14487;DHT22;7329;50.866;4.366;2022-12-13T00:38:09;16.50;80.60
14487;DHT22;7329;50.866;4.366;2022-12-13T00:40:12;16.50;80.80
14487;DHT22;7329;50.866;4.366;2022-12-13T00:42:14;16.50;81.00
14487;DHT22;7329;50.866;4.366;2022-12-13T00:44:17;16.50;81.10
14487;DHT22;7329;50.866;4.366;2022-12-13T00:46:21;16.50;81.40
14487;DHT22;7329;50.866;4.366;2022-12-13T00:48:23;16.40;81.00
14487;DHT22;7329;50.866;4.366;2022-12-13T00:50:25;16.40;80.80
14487;DHT22;7329;50.866;4.366;2022-12-13T00:52:28;16.50;80.90
14487;DHT22;7329;50.866;4.366;2022-12-13T00:54:30;16.40;80.40
14487;DHT22;7329;50.866;4.366;2022-12-13T00:56:33;16.40;80.80
14487;DHT22;7329;50.866;4.366;2022-12-13T00:58:35;16.40;80.90
14487;DHT22;7329;50.866;4.366;2022-12-13T01:00:37;16.40;80.80
14487;DHT22;7329;50.866;4.366;2022-12-13T01:02:41;16.40;81.00
14487;DHT22;7329;50.866;4.366;2022-12-13T01:04:44;16.40;80.60
14487;DHT22;7329;50.866;4.366;2022-12-13T01:06:46;16.40;80.40
14487;DHT22;7329;50.866;4.366;2022-12-13T01:08:51;16.40;80.40
14487;DHT22;7329;50.866;4.366;2022-12-13T01:10:54;16.40;80.40
14487;DHT22;7329;50.866;4.366;2022-12-13T01:12:56;16.40;80.40
14487;DHT22;7329;50.866;4.366;2022-12-13T01:14:59;16.40;80.40
14487;DHT22;7329;50.866;4.366;2022-12-13T01:17:01;16.40;80.50
14487;DHT22;7329;50.866;4.366;2022-12-13T01:19:05;16.40;80.00
14487;DHT22;7329;50.866;4.366;2022-12-13T01:21:10;16.40;80.60
14487;DHT22;7329;50.866;4.366;2022-12-13T01:23:13;16.30;80.20
14487;DHT22;7329;50.866;4.366;2022-12-13T01:25:15;16.30;80.30
14487;DHT22;7329;50.866;4.366;2022-12-13T01:27:18;16.30;80.30
14487;DHT22;7329;50.866;4.366;2022-12-13T01:29:21;16.30;80.20
14487;DHT22;7329;50.866;4.366;2022-12-13T01:31:24;16.30;79.70
14487;DHT22;7329;50.866;4.366;2022-12-13T01:33:27;16.30;79.70
14487;DHT22;7329;50.866;4.366;2022-12-13T01:35:32;16.30;80.20
14487;DHT22;7329;50.866;4.366;2022-12-13T01:37:35;16.30;79.70
14487;DHT22;7329;50.866;4.366;2022-12-13T01:39:37;16.20;79.70
14487;DHT22;7329;50.866;4.366;2022-12-13T01:41:40;16.30;80.00
14487;DHT22;7329;50.866;4.366;2022-12-13T01:43:52;16.30;79.70
14487;DHT22;7329;50.866;4.366;2022-12-13T01:45:55;16.20;80.00
14487;DHT22;7329;50.866;4.366;2022-12-13T01:47:59;16.30;79.70
14487;DHT22;7329;50.866;4.366;2022-12-13T01:50:06;16.20;79.90
14487;DHT22;7329;50.866;4.366;2022-12-13T01:52:12;16.20;79.90
14487;DHT22;7329;50.866;4.366;2022-12-13T01:54:18;16.20;80.00
14487;DHT22;7329;50.866;4.366;2022-12-13T01:56:24;16.20;80.10
14487;DHT22;7329;50.866;4.366;2022-12-13T01:58:28;16.20;79.70
14487;DHT22;7329;50.866;4.366;2022-12-13T02:00:31;16.20;79.60
14487;DHT22;7329;50.866;4.366;2022-12-13T02:02:35;16.20;79.60
14487;DHT22;7329;50.866;4.366;2022-12-13T02:04:43;16.20;79.60
14487;DHT22;7329;50.866;4.366;2022-12-13T02:06:47;16.20;79.70
14487;DHT22;7329;50.866;4.366;2022-12-13T02:08:51;16.20;79.50
14487;DHT22;7329;50.866;4.366;2022-12-13T02:10:54;16.20;79.80
14487;DHT22;7329;50.866;4.366;2022-12-13T02:12:56;16.20;79.40
14487;DHT22;7329;50.866;4.366;2022-12-13T02:15:01;16.20;79.10
14487;DHT22;7329;50.866;4.366;2022-12-13T02:17:09;16.20;79.10
14487;DHT22;7329;50.866;4.366;2022-12-13T02:19:49;16.10;79.50
14487;DHT22;7329;50.866;4.366;2022-12-13T02:22:06;16.10;79.80
14487;DHT22;7329;50.866;4.366;2022-12-13T02:24:44;16.10;80.50
14487;DHT22;7329;50.866;4.366;2022-12-13T02:32:07;16.10;79.00
14487;DHT22;7329;50.866;4.366;2022-12-13T02:34:17;16.10;79.10
14487;DHT22;7329;50.866;4.366;2022-12-13T02:36:27;16.10;79.10
14487;DHT22;7329;50.866;4.366;2022-12-13T02:38:36;16.10;79.30
14487;DHT22;7329;50.866;4.366;2022-12-13T02:40:43;16.10;79.20
14487;DHT22;7329;50.866;4.366;2022-12-13T02:42:53;16.00;78.70
14487;DHT22;7329;50.866;4.366;2022-12-13T02:45:03;16.00;79.20
14487;DHT22;7329;50.866;4.366;2022-12-13T02:47:10;16.10;79.20
14487;DHT22;7329;50.866;4.366;2022-12-13T02:49:14;16.00;79.00
14487;DHT22;7329;50.866;4.366;2022-12-13T02:51:19;16.00;78.70
14487;DHT22;7329;50.866;4.366;2022-12-13T02:53:24;16.00;79.40
14487;DHT22;7329;50.866;4.366;2022-12-13T02:55:27;16.00;79.00
14487;DHT22;7329;50.866;4.366;2022-12-13T02:57:34;16.00;78.60
14487;DHT22;7329;50.866;4.366;2022-12-13T02:59:37;16.00;79.10
14487;DHT22;7329;50.866;4.366;2022-12-13T03:01:48;16.00;78.60
14487;DHT22;7329;50.866;4.366;2022-12-13T03:04:03;16.00;78.70
14487;DHT22;7329;50.866;4.366;2022-12-13T03:06:19;16.00;79.40
14487;DHT22;7329;50.866;4.366;2022-12-13T03:08:41;16.00;79.00
14487;DHT22;7329;50.866;4.366;2022-12-13T03:10:52;16.00;78.50
14487;DHT22;7329;50.866;4.366;2022-12-13T03:13:01;16.00;78.50
14487;DHT22;7329;50.866;4.366;2022-12-13T03:15:26;16.00;78.90
14487;DHT22;7329;50.866;4.366;2022-12-13T03:17:36;16.00;78.70
14487;DHT22;7329;50.866;4.366;2022-12-13T03:19:42;15.90;78.40
14487;DHT22;7329;50.866;4.366;2022-12-13T03:21:47;16.00;78.40
14487;DHT22;7329;50.866;4.366;2022-12-13T03:23:50;15.90;78.30
14487;DHT22;7329;50.866;4.366;2022-12-13T03:25:54;15.90;78.40
14487;DHT22;7329;50.866;4.366;2022-12-13T03:27:57;15.90;77.90
14487;DHT22;7329;50.866;4.366;2022-12-13T03:29:59;15.90;78.40
14487;DHT22;7329;50.866;4.366;2022-12-13T03:32:01;15.90;78.10
14487;DHT22;7329;50.866;4.366;2022-12-13T03:34:04;15.90;77.60
14487;DHT22;7329;50.866;4.366;2022-12-13T03:36:09;15.90;78.30
14487;DHT22;7329;50.866;4.366;2022-12-13T03:38:14;15.90;78.40
14487;DHT22;7329;50.866;4.366;2022-12-13T03:40:17;15.90;78.30
14487;DHT22;7329;50.866;4.366;2022-12-13T03:42:19;15.90;78.40
14487;DHT22;7329;50.866;4.366;2022-12-13T03:44:21;15.90;78.30
14487;DHT22;7329;50.866;4.366;2022-12-13T03:46:24;15.90;78.20
14487;DHT22;7329;50.866;4.366;2022-12-13T03:48:26;15.90;78.40
14487;DHT22;7329;50.866;4.366;2022-12-13T03:50:29;15.90;78.30
14487;DHT22;7329;50.866;4.366;2022-12-13T03:52:32;15.90;77.80
14487;DHT22;7329;50.866;4.366;2022-12-13T03:54:35;15.80;78.30
14487;DHT22;7329;50.866;4.366;2022-12-13T03:56:37;15.80;78.20
14487;DHT22;7329;50.866;4.366;2022-12-13T03:58:39;15.90;77.80
14487;DHT22;7329;50.866;4.366;2022-12-13T04:00:43;15.80;77.80
14487;DHT22;7329;50.866;4.366;2022-12-13T04:02:45;15.80;77.70
14487;DHT22;7329;50.866;4.366;2022-12-13T04:04:48;15.80;77.90
14487;DHT22;7329;50.866;4.366;2022-12-13T04:06:50;15.80;78.10
14487;DHT22;7329;50.866;4.366;2022-12-13T04:08:54;15.80;77.80
14487;DHT22;7329;50.866;4.366;2022-12-13T04:10:56;15.80;77.80
14487;DHT22;7329;50.866;4.366;2022-12-13T04:12:59;15.80;77.80
14487;DHT22;7329;50.866;4.366;2022-12-13T04:15:18;15.80;78.20
14487;DHT22;7329;50.866;4.366;2022-12-13T04:17:21;15.80;77.50
14487;DHT22;7329;50.866;4.366;2022-12-13T04:19:23;15.80;77.50
14487;DHT22;7329;50.866;4.366;2022-12-13T04:21:25;15.80;77.10
14487;DHT22;7329;50.866;4.366;2022-12-13T04:23:28;15.80;77.60
14487;DHT22;7329;50.866;4.366;2022-12-13T04:25:31;15.80;77.50
14487;DHT22;7329;50.866;4.366;2022-12-13T04:27:34;15.70;77.60
14487;DHT22;7329;50.866;4.366;2022-12-13T04:29:38;15.80;77.80
14487;DHT22;7329;50.866;4.366;2022-12-13T04:31:40;15.80;77.20
14487;DHT22;7329;50.866;4.366;2022-12-13T04:33:42;15.70;77.40
14487;DHT22;7329;50.866;4.366;2022-12-13T04:35:45;15.70;77.30
14487;DHT22;7329;50.866;4.366;2022-12-13T04:37:47;15.70;77.40
14487;DHT22;7329;50.866;4.366;2022-12-13T04:39:49;15.70;77.70
14487;DHT22;7329;50.866;4.366;2022-12-13T04:41:53;15.70;77.00
14487;DHT22;7329;50.866;4.366;2022-12-13T04:43:56;15.70;77.20
14487;DHT22;7329;50.866;4.366;2022-12-13T04:45:58;15.70;77.30
14487;DHT22;7329;50.866;4.366;2022-12-13T04:48:00;15.70;77.40
14487;DHT22;7329;50.866;4.366;2022-12-13T04:50:04;15.70;77.20
14487;DHT22;7329;50.866;4.366;2022-12-13T04:52:06;15.70;77.30
14487;DHT22;7329;50.866;4.366;2022-12-13T04:54:09;15.70;77.10
14487;DHT22;7329;50.866;4.366;2022-12-13T04:56:11;15.70;77.20
14487;DHT22;7329;50.866;4.366;2022-12-13T04:58:16;15.70;77.30
14487;DHT22;7329;50.866;4.366;2022-12-13T05:00:19;15.70;77.00
14487;DHT22;7329;50.866;4.366;2022-12-13T05:02:23;15.70;77.20
14487;DHT22;7329;50.866;4.366;2022-12-13T05:04:25;15.70;77.10
14487;DHT22;7329;50.866;4.366;2022-12-13T05:06:27;15.70;77.90
14487;DHT22;7329;50.866;4.366;2022-12-13T05:08:30;15.70;77.00
14487;DHT22;7329;50.866;4.366;2022-12-13T05:10:32;15.70;77.20
14487;DHT22;7329;50.866;4.366;2022-12-13T05:12:35;15.60;76.70
14487;DHT22;7329;50.866;4.366;2022-12-13T05:14:39;15.60;77.00
14487;DHT22;7329;50.866;4.366;2022-12-13T05:16:41;15.60;77.40
14487;DHT22;7329;50.866;4.366;2022-12-13T05:18:43;15.60;76.60
14487;DHT22;7329;50.866;4.366;2022-12-13T05:20:46;15.60;76.90
14487;DHT22;7329;50.866;4.366;2022-12-13T05:22:54;15.60;76.60
14487;DHT22;7329;50.866;4.366;2022-12-13T05:24:56;15.60;77.10
14487;DHT22;7329;50.866;4.366;2022-12-13T05:26:59;15.60;76.70
14487;DHT22;7329;50.866;4.366;2022-12-13T05:29:01;15.60;76.70
14487;DHT22;7329;50.866;4.366;2022-12-13T05:31:08;15.60;76.20
14487;DHT22;7329;50.866;4.366;2022-12-13T05:33:11;15.60;76.20
14487;DHT22;7329;50.866;4.366;2022-12-13T05:35:14;15.60;76.40
14487;DHT22;7329;50.866;4.366;2022-12-13T05:37:17;15.60;76.60
14487;DHT22;7329;50.866;4.366;2022-12-13T05:39:19;15.60;76.70
14487;DHT22;7329;50.866;4.366;2022-12-13T05:41:23;15.50;76.60
14487;DHT22;7329;50.866;4.366;2022-12-13T05:43:25;15.50;76.70
14487;DHT22;7329;50.866;4.366;2022-12-13T05:45:28;15.50;76.40
14487;DHT22;7329;50.866;4.366;2022-12-13T05:47:32;15.50;76.60
14487;DHT22;7329;50.866;4.366;2022-12-13T05:49:34;15.50;76.30
14487;DHT22;7329;50.866;4.366;2022-12-13T05:51:37;15.60;76.20
14487;DHT22;7329;50.866;4.366;2022-12-13T05:53:40;15.50;75.80
14487;DHT22;7329;50.866;4.366;2022-12-13T05:55:43;15.40;75.20
14487;DHT22;7329;50.866;4.366;2022-12-13T05:57:45;15.40;74.80
14487;DHT22;7329;50.866;4.366;2022-12-13T05:59:48;15.40;75.40
14487;DHT22;7329;50.866;4.366;2022-12-13T06:01:50;15.40;74.80
14487;DHT22;7329;50.866;4.366;2022-12-13T06:03:54;15.40;75.80
14487;DHT22;7329;50.866;4.366;2022-12-13T06:05:59;15.50;76.20
14487;DHT22;7329;50.866;4.366;2022-12-13T06:08:02;15.60;76.20
14487;DHT22;7329;50.866;4.366;2022-12-13T06:10:05;15.60;76.40
14487;DHT22;7329;50.866;4.366;2022-12-13T06:12:08;15.60;76.20
14487;DHT22;7329;50.866;4.366;2022-12-13T06:14:10;15.70;76.30
14487;DHT22;7329;50.866;4.366;2022-12-13T06:16:13;15.70;76.00
14487;DHT22;7329;50.866;4.366;2022-12-13T06:18:15;15.70;75.90
14487;DHT22;7329;50.866;4.366;2022-12-13T06:20:19;15.70;76.20
14487;DHT22;7329;50.866;4.366;2022-12-13T06:22:21;15.80;77.20
14487;DHT22;7329;50.866;4.366;2022-12-13T06:24:23;15.80;76.40
14487;DHT22;7329;50.866;4.366;2022-12-13T06:26:27;15.80;76.30
14487;DHT22;7329;50.866;4.366;2022-12-13T06:28:29;15.80;76.20
14487;DHT22;7329;50.866;4.366;2022-12-13T06:30:32;15.80;76.40
14487;DHT22;7329;50.866;4.366;2022-12-13T06:32:34;15.90;76.00
14487;DHT22;7329;50.866;4.366;2022-12-13T06:34:36;15.90;76.20
14487;DHT22;7329;50.866;4.366;2022-12-13T06:36:40;15.90;77.00
14487;DHT22;7329;50.866;4.366;2022-12-13T06:38:43;15.90;75.90
14487;DHT22;7329;50.866;4.366;2022-12-13T06:40:45;16.00;76.60
14487;DHT22;7329;50.866;4.366;2022-12-13T06:42:47;16.00;76.00
14487;DHT22;7329;50.866;4.366;2022-12-13T06:44:49;16.00;76.20
14487;DHT22;7329;50.866;4.366;2022-12-13T06:46:52;16.00;76.20
14487;DHT22;7329;50.866;4.366;2022-12-13T06:48:56;16.00;76.30
14487;DHT22;7329;50.866;4.366;2022-12-13T06:50:59;16.00;76.60
14487;DHT22;7329;50.866;4.366;2022-12-13T06:53:04;16.00;76.60
14487;DHT22;7329;50.866;4.366;2022-12-13T06:55:07;16.10;77.00
14487;DHT22;7329;50.866;4.366;2022-12-13T06:57:10;16.10;76.30
14487;DHT22;7329;50.866;4.366;2022-12-13T06:59:12;16.10;76.60
14487;DHT22;7329;50.866;4.366;2022-12-13T07:01:16;16.10;76.50
14487;DHT22;7329;50.866;4.366;2022-12-13T07:03:19;16.10;76.70
14487;DHT22;7329;50.866;4.366;2022-12-13T07:05:22;16.10;77.40
14487;DHT22;7329;50.866;4.366;2022-12-13T07:07:25;16.20;77.50
14487;DHT22;7329;50.866;4.366;2022-12-13T07:09:29;16.20;77.10
14487;DHT22;7329;50.866;4.366;2022-12-13T07:11:32;16.20;77.60
14487;DHT22;7329;50.866;4.366;2022-12-13T07:13:34;16.20;77.90
14487;DHT22;7329;50.866;4.366;2022-12-13T07:15:37;16.20;78.10
14487;DHT22;7329;50.866;4.366;2022-12-13T07:17:39;16.20;78.40
14487;DHT22;7329;50.866;4.366;2022-12-13T07:19:42;16.30;78.70
14487;DHT22;7329;50.866;4.366;2022-12-13T07:21:45;16.30;78.40
14487;DHT22;7329;50.866;4.366;2022-12-13T07:23:47;16.30;78.30
14487;DHT22;7329;50.866;4.366;2022-12-13T07:25:52;16.30;78.50
14487;DHT22;7329;50.866;4.366;2022-12-13T07:27:59;16.30;78.90
14487;DHT22;7329;50.866;4.366;2022-12-13T07:30:02;16.30;79.10
14487;DHT22;7329;50.866;4.366;2022-12-13T07:32:05;16.30;79.50
14487;DHT22;7329;50.866;4.366;2022-12-13T07:34:07;16.30;79.10
14487;DHT22;7329;50.866;4.366;2022-12-13T07:36:12;16.30;78.90
14487;DHT22;7329;50.866;4.366;2022-12-13T07:38:14;16.30;79.80
14487;DHT22;7329;50.866;4.366;2022-12-13T07:40:17;16.30;79.80
14487;DHT22;7329;50.866;4.366;2022-12-13T07:42:21;16.30;80.00
14487;DHT22;7329;50.866;4.366;2022-12-13T07:44:23;16.40;79.90
14487;DHT22;7329;50.866;4.366;2022-12-13T07:46:27;16.40;79.40
14487;DHT22;7329;50.866;4.366;2022-12-13T07:48:29;16.40;79.80
14487;DHT22;7329;50.866;4.366;2022-12-13T07:50:32;16.40;80.90
14487;DHT22;7329;50.866;4.366;2022-12-13T07:52:34;16.40;80.70
14487;DHT22;7329;50.866;4.366;2022-12-13T07:54:37;16.40;80.50
14487;DHT22;7329;50.866;4.366;2022-12-13T07:56:39;16.40;80.90
14487;DHT22;7329;50.866;4.366;2022-12-13T07:58:43;16.50;81.00
14487;DHT22;7329;50.866;4.366;2022-12-13T08:00:47;16.50;80.90
14487;DHT22;7329;50.866;4.366;2022-12-13T08:02:49;16.40;80.80
14487;DHT22;7329;50.866;4.366;2022-12-13T08:04:52;16.50;81.40
14487;DHT22;7329;50.866;4.366;2022-12-13T08:06:54;16.40;79.70
14487;DHT22;7329;50.866;4.366;2022-12-13T08:08:57;16.40;77.60
14487;DHT22;7329;50.866;4.366;2022-12-13T08:11:00;16.40;76.20
14487;DHT22;7329;50.866;4.366;2022-12-13T08:13:03;16.50;74.50
14487;DHT22;7329;50.866;4.366;2022-12-13T08:15:08;16.70;76.60
14487;DHT22;7329;50.866;4.366;2022-12-13T08:17:10;16.80;74.80
14487;DHT22;7329;50.866;4.366;2022-12-13T08:19:12;16.80;75.40
14487;DHT22;7329;50.866;4.366;2022-12-13T08:21:15;17.00;76.30
14487;DHT22;7329;50.866;4.366;2022-12-13T08:23:17;17.10;74.90
14487;DHT22;7329;50.866;4.366;2022-12-13T08:25:19;17.20;74.80
14487;DHT22;7329;50.866;4.366;2022-12-13T08:27:22;17.30;73.10
14487;DHT22;7329;50.866;4.366;2022-12-13T08:29:24;17.40;73.80
14487;DHT22;7329;50.866;4.366;2022-12-13T08:31:28;17.40;72.50
14487;DHT22;7329;50.866;4.366;2022-12-13T08:33:31;17.50;76.10
14487;DHT22;7329;50.866;4.366;2022-12-13T08:35:34;17.60;73.20
14487;DHT22;7329;50.866;4.366;2022-12-13T08:37:36;17.70;73.70
14487;DHT22;7329;50.866;4.366;2022-12-13T08:39:39;17.80;72.80
14487;DHT22;7329;50.866;4.366;2022-12-13T08:41:41;17.80;72.70
14487;DHT22;7329;50.866;4.366;2022-12-13T08:43:43;17.90;74.20
14487;DHT22;7329;50.866;4.366;2022-12-13T08:45:48;17.90;73.80
14487;DHT22;7329;50.866;4.366;2022-12-13T08:47:52;18.00;75.60
14487;DHT22;7329;50.866;4.366;2022-12-13T08:49:56;18.00;75.50
14487;DHT22;7329;50.866;4.366;2022-12-13T08:51:59;18.10;75.80
14487;DHT22;7329;50.866;4.366;2022-12-13T08:54:01;18.20;75.80
14487;DHT22;7329;50.866;4.366;2022-12-13T08:56:07;18.20;75.50
14487;DHT22;7329;50.866;4.366;2022-12-13T08:58:10;18.20;74.40
14487;DHT22;7329;50.866;4.366;2022-12-13T09:00:16;18.30;73.90
14487;DHT22;7329;50.866;4.366;2022-12-13T09:02:19;18.30;74.30
14487;DHT22;7329;50.866;4.366;2022-12-13T09:04:23;18.30;76.20
14487;DHT22;7329;50.866;4.366;2022-12-13T09:06:25;18.40;75.70
14487;DHT22;7329;50.866;4.366;2022-12-13T09:08:27;18.40;75.90
14487;DHT22;7329;50.866;4.366;2022-12-13T09:10:30;18.50;75.80
14487;DHT22;7329;50.866;4.366;2022-12-13T09:12:32;18.60;75.50
14487;DHT22;7329;50.866;4.366;2022-12-13T09:14:34;18.60;75.80
14487;DHT22;7329;50.866;4.366;2022-12-13T09:16:37;18.60;76.30
14487;DHT22;7329;50.866;4.366;2022-12-13T09:18:39;18.60;76.60
14487;DHT22;7329;50.866;4.366;2022-12-13T09:20:43;18.60;73.50
14487;DHT22;7329;50.866;4.366;2022-12-13T09:22:45;18.60;74.70
14487;DHT22;7329;50.866;4.366;2022-12-13T09:24:57;18.70;75.80
14487;DHT22;7329;50.866;4.366;2022-12-13T09:26:59;18.70;76.70
14487;DHT22;7329;50.866;4.366;2022-12-13T09:29:02;18.70;76.30
14487;DHT22;7329;50.866;4.366;2022-12-13T09:31:06;18.80;76.20
14487;DHT22;7329;50.866;4.366;2022-12-13T09:33:09;18.80;76.80
14487;DHT22;7329;50.866;4.366;2022-12-13T09:35:13;18.90;77.00
14487;DHT22;7329;50.866;4.366;2022-12-13T09:37:17;18.90;77.70
14487;DHT22;7329;50.866;4.366;2022-12-13T09:39:19;18.90;78.40
14487;DHT22;7329;50.866;4.366;2022-12-13T09:41:27;19.00;78.00
14487;DHT22;7329;50.866;4.366;2022-12-13T09:43:32;19.00;78.30
14487;DHT22;7329;50.866;4.366;2022-12-13T09:45:35;19.00;76.80
14487;DHT22;7329;50.866;4.366;2022-12-13T09:47:41;19.00;75.20
14487;DHT22;7329;50.866;4.366;2022-12-13T09:49:46;19.00;76.70
14487;DHT22;7329;50.866;4.366;2022-12-13T09:51:52;19.10;77.00
14487;DHT22;7329;50.866;4.366;2022-12-13T09:53:56;19.10;76.70
14487;DHT22;7329;50.866;4.366;2022-12-13T09:55:59;19.10;77.20
14487;DHT22;7329;50.866;4.366;2022-12-13T09:58:05;19.10;77.70
14487;DHT22;7329;50.866;4.366;2022-12-13T10:00:14;19.20;78.50
14487;DHT22;7329;50.866;4.366;2022-12-13T10:02:22;19.20;79.40
14487;DHT22;7329;50.866;4.366;2022-12-13T10:04:28;19.30;79.00
14487;DHT22;7329;50.866;4.366;2022-12-13T10:06:31;19.30;78.20
14487;DHT22;7329;50.866;4.366;2022-12-13T10:08:36;19.40;78.60
14487;DHT22;7329;50.866;4.366;2022-12-13T10:10:45;19.40;78.40
14487;DHT22;7329;50.866;4.366;2022-12-13T10:12:56;19.50;78.40
14487;DHT22;7329;50.866;4.366;2022-12-13T10:15:01;19.50;78.50
14487;DHT22;7329;50.866;4.366;2022-12-13T10:17:06;19.50;78.60
14487;DHT22;7329;50.866;4.366;2022-12-13T10:19:14;19.50;78.80
14487;DHT22;7329;50.866;4.366;2022-12-13T10:21:21;19.50;79.10
14487;DHT22;7329;50.866;4.366;2022-12-13T10:23:26;19.60;79.20
14487;DHT22;7329;50.866;4.366;2022-12-13T10:25:45;19.60;79.70
14487;DHT22;7329;50.866;4.366;2022-12-13T10:27:48;19.70;79.50
14487;DHT22;7329;50.866;4.366;2022-12-13T10:29:59;19.70;78.90
14487;DHT22;7329;50.866;4.366;2022-12-13T10:32:11;19.70;79.60
14487;DHT22;7329;50.866;4.366;2022-12-13T10:34:21;19.70;78.80
14487;DHT22;7329;50.866;4.366;2022-12-13T10:36:32;19.70;78.10
14487;DHT22;7329;50.866;4.366;2022-12-13T10:38:37;19.60;77.70
14487;DHT22;7329;50.866;4.366;2022-12-13T10:40:42;19.70;78.20
14487;DHT22;7329;50.866;4.366;2022-12-13T10:42:45;19.70;77.60
14487;DHT22;7329;50.866;4.366;2022-12-13T10:45:08;19.70;77.90
14487;DHT22;7329;50.866;4.366;2022-12-13T10:47:14;19.70;78.50
14487;DHT22;7329;50.866;4.366;2022-12-13T10:49:20;19.70;78.70
14487;DHT22;7329;50.866;4.366;2022-12-13T10:51:26;19.80;78.90
14487;DHT22;7329;50.866;4.366;2022-12-13T10:53:30;19.80;79.50
14487;DHT22;7329;50.866;4.366;2022-12-13T10:55:33;19.80;79.10
14487;DHT22;7329;50.866;4.366;2022-12-13T10:57:39;19.90;79.40
14487;DHT22;7329;50.866;4.366;2022-12-13T10:59:49;19.90;79.30
14487;DHT22;7329;50.866;4.366;2022-12-13T11:01:52;19.90;79.10
14487;DHT22;7329;50.866;4.366;2022-12-13T11:03:56;20.00;79.30
14487;DHT22;7329;50.866;4.366;2022-12-13T11:06:03;20.00;80.60
14487;DHT22;7329;50.866;4.366;2022-12-13T11:08:14;19.90;79.70
14487;DHT22;7329;50.866;4.366;2022-12-13T11:10:22;20.00;80.00
14487;DHT22;7329;50.866;4.366;2022-12-13T11:12:26;20.00;79.60
14487;DHT22;7329;50.866;4.366;2022-12-13T11:14:32;20.00;79.60
14487;DHT22;7329;50.866;4.366;2022-12-13T11:16:39;20.10;79.60
14487;DHT22;7329;50.866;4.366;2022-12-13T11:18:41;20.10;79.60
14487;DHT22;7329;50.866;4.366;2022-12-13T11:20:51;20.10;79.80
14487;DHT22;7329;50.866;4.366;2022-12-13T11:22:59;20.10;79.80
14487;DHT22;7329;50.866;4.366;2022-12-13T11:25:07;20.10;79.80
14487;DHT22;7329;50.866;4.366;2022-12-13T11:27:38;20.10;79.70
14487;DHT22;7329;50.866;4.366;2022-12-13T11:29:55;20.10;79.80
14487;DHT22;7329;50.866;4.366;2022-12-13T11:32:05;20.20;79.70
14487;DHT22;7329;50.866;4.366;2022-12-13T11:34:17;20.30;80.10
14487;DHT22;7329;50.866;4.366;2022-12-13T11:36:30;20.20;79.90
14487;DHT22;7329;50.866;4.366;2022-12-13T11:39:02;20.20;79.80
14487;DHT22;7329;50.866;4.366;2022-12-13T11:41:18;20.20;79.80
14487;DHT22;7329;50.866;4.366;2022-12-13T11:43:31;20.20;77.90
14487;DHT22;7329;50.866;4.366;2022-12-13T11:45:40;20.30;79.00
14487;DHT22;7329;50.866;4.366;2022-12-13T11:47:47;20.30;78.80
14487;DHT22;7329;50.866;4.366;2022-12-13T11:49:51;20.40;79.40
14487;DHT22;7329;50.866;4.366;2022-12-13T11:51:57;20.30;79.30
14487;DHT22;7329;50.866;4.366;2022-12-13T11:54:05;20.30;79.40
14487;DHT22;7329;50.866;4.366;2022-12-13T11:56:18;20.30;79.40
14487;DHT22;7329;50.866;4.366;2022-12-13T11:58:30;20.30;79.60
14487;DHT22;7329;50.866;4.366;2022-12-13T12:00:39;20.20;80.00
14487;DHT22;7329;50.866;4.366;2022-12-13T12:02:51;20.20;79.50
14487;DHT22;7329;50.866;4.366;2022-12-13T12:04:55;20.20;78.30
14487;DHT22;7329;50.866;4.366;2022-12-13T12:07:03;20.20;78.60
14487;DHT22;7329;50.866;4.366;2022-12-13T12:09:12;20.20;80.20
14487;DHT22;7329;50.866;4.366;2022-12-13T12:11:21;20.20;80.40
14487;DHT22;7329;50.866;4.366;2022-12-13T12:13:28;20.20;80.50
14487;DHT22;7329;50.866;4.366;2022-12-13T12:15:39;20.20;79.80
14487;DHT22;7329;50.866;4.366;2022-12-13T12:17:45;20.20;78.30
14487;DHT22;7329;50.866;4.366;2022-12-13T12:20:02;20.30;79.60
14487;DHT22;7329;50.866;4.366;2022-12-13T12:22:18;20.30;80.20
14487;DHT22;7329;50.866;4.366;2022-12-13T12:24:29;20.30;81.20
14487;DHT22;7329;50.866;4.366;2022-12-13T12:26:41;20.40;81.20
14487;DHT22;7329;50.866;4.366;2022-12-13T12:28:59;20.30;81.30
14487;DHT22;7329;50.866;4.366;2022-12-13T12:31:18;20.40;81.30
14487;DHT22;7329;50.866;4.366;2022-12-13T12:33:38;20.40;81.30
14487;DHT22;7329;50.866;4.366;2022-12-13T12:35:52;20.50;81.40
14487;DHT22;7329;50.866;4.366;2022-12-13T12:38:11;20.50;81.40
14487;DHT22;7329;50.866;4.366;2022-12-13T12:40:34;20.50;82.00
14487;DHT22;7329;50.866;4.366;2022-12-13T12:42:49;20.50;82.10
14487;DHT22;7329;50.866;4.366;2022-12-13T12:45:25;20.50;82.40
14487;DHT22;7329;50.866;4.366;2022-12-13T12:47:42;20.50;82.40
14487;DHT22;7329;50.866;4.366;2022-12-13T12:50:15;20.60;83.20
14487;DHT22;7329;50.866;4.366;2022-12-13T12:52:34;20.50;82.30
14487;DHT22;7329;50.866;4.366;2022-12-13T12:54:56;20.50;83.20
14487;DHT22;7329;50.866;4.366;2022-12-13T12:57:10;20.60;82.40
14487;DHT22;7329;50.866;4.366;2022-12-13T12:59:20;20.60;82.60
14487;DHT22;7329;50.866;4.366;2022-12-13T13:01:41;20.70;83.10
14487;DHT22;7329;50.866;4.366;2022-12-13T13:03:48;20.70;82.80
14487;DHT22;7329;50.866;4.366;2022-12-13T13:05:54;20.70;82.50
14487;DHT22;7329;50.866;4.366;2022-12-13T13:08:04;20.70;82.90
14487;DHT22;7329;50.866;4.366;2022-12-13T13:10:08;20.70;82.80
14487;DHT22;7329;50.866;4.366;2022-12-13T13:12:11;20.70;82.90
14487;DHT22;7329;50.866;4.366;2022-12-13T13:14:30;20.70;82.80
14487;DHT22;7329;50.866;4.366;2022-12-13T13:16:35;20.70;82.80
14487;DHT22;7329;50.866;4.366;2022-12-13T13:18:48;20.80;82.70
14487;DHT22;7329;50.866;4.366;2022-12-13T13:21:30;20.80;82.20
14487;DHT22;7329;50.866;4.366;2022-12-13T13:23:35;20.80;82.90
14487;DHT22;7329;50.866;4.366;2022-12-13T13:25:54;20.80;81.90
14487;DHT22;7329;50.866;4.366;2022-12-13T13:28:13;20.70;82.00
14487;DHT22;7329;50.866;4.366;2022-12-13T13:30:19;20.80;81.90
14487;DHT22;7329;50.866;4.366;2022-12-13T13:32:29;20.80;82.10